sensor_id;sensor_type;location;lat;lon;timestamp;pressure;altitude;pressure_sealevel;temperature;humidity
9235;BME280;4652;42.716;23.218;2024-03-02T00:00:19;94187.06;;;7.32;74.91
9235;BME280;4652;42.716;23.218;2024-03-02T00:02:49;94174.91;;;7.38;74.37
9235;BME280;4652;42.716;23.218;2024-03-02T00:05:18;94182.44;;;7.34;75.68
9235;BME280;4652;42.716;23.218;2024-03-02T00:07:51;94198.19;;;7.33;75.33
9235;BME280;4652;42.716;23.218;2024-03-02T00:10:20;94197.41;;;7.32;75.35
9235;BME280;4652;42.716;23.218;2024-03-02T00:12:49;94201.28;;;7.30;74.81
9235;BME280;4652;42.716;23.218;2024-03-02T00:18:11;94204.13;;;7.38;75.67
9235;BME280;4652;42.716;23.218;2024-03-02T00:20:58;94197.66;;;7.41;74.64
9235;BME280;4652;42.716;23.218;2024-03-02T00:23:27;94198.44;;;7.41;75.01
9235;BME280;4652;42.716;23.218;2024-03-02T00:25:55;94202.06;;;7.40;75.01
9235;BME280;4652;42.716;23.218;2024-03-02T00:28:27;94204.34;;;7.47;73.67
9235;BME280;4652;42.716;23.218;2024-03-02T00:31:13;94202.03;;;7.45;74.36
9235;BME280;4652;42.716;23.218;2024-03-02T00:33:44;94190.41;;;7.43;74.51
9235;BME280;4652;42.716;23.218;2024-03-02T00:36:12;94194.53;;;7.44;73.71
9235;BME280;4652;42.716;23.218;2024-03-02T00:38:49;94195.78;;;7.52;73.48
9235;BME280;4652;42.716;23.218;2024-03-02T00:46:18;94186.50;;;7.51;73.75
9235;BME280;4652;42.716;23.218;2024-03-02T00:48:50;94190.91;;;7.50;74.30
9235;BME280;4652;42.716;23.218;2024-03-02T00:51:17;94183.88;;;7.56;73.69
9235;BME280;4652;42.716;23.218;2024-03-02T00:53:44;94184.16;;;7.59;74.38
9235;BME280;4652;42.716;23.218;2024-03-02T00:56:11;94189.84;;;7.56;74.73
9235;BME280;4652;42.716;23.218;2024-03-02T00:58:38;94190.81;;;7.65;73.95
9235;BME280;4652;42.716;23.218;2024-03-02T01:01:05;94189.75;;;7.71;73.04
9235;BME280;4652;42.716;23.218;2024-03-02T01:03:34;94192.56;;;7.80;73.46
9235;BME280;4652;42.716;23.218;2024-03-02T01:06:00;94191.03;;;7.79;73.13
9235;BME280;4652;42.716;23.218;2024-03-02T01:08:26;94194.09;;;7.81;73.04
9235;BME280;4652;42.716;23.218;2024-03-02T01:10:53;94185.63;;;7.70;74.11
9235;BME280;4652;42.716;23.218;2024-03-02T01:13:22;94181.47;;;7.75;73.81
9235;BME280;4652;42.716;23.218;2024-03-02T01:15:49;94180.69;;;7.79;73.89
9235;BME280;4652;42.716;23.218;2024-03-02T01:18:16;94171.94;;;7.65;74.23
9235;BME280;4652;42.716;23.218;2024-03-02T01:20:42;94171.69;;;7.66;75.78
9235;BME280;4652;42.716;23.218;2024-03-02T01:23:09;94175.28;;;7.70;76.75
9235;BME280;4652;42.716;23.218;2024-03-02T01:25:36;94173.72;;;7.75;75.84
9235;BME280;4652;42.716;23.218;2024-03-02T01:28:03;94176.28;;;7.80;76.21
9235;BME280;4652;42.716;23.218;2024-03-02T01:30:29;94169.59;;;7.68;76.55
9235;BME280;4652;42.716;23.218;2024-03-02T01:32:55;94162.94;;;7.57;76.99
9235;BME280;4652;42.716;23.218;2024-03-02T01:35:22;94168.38;;;7.56;76.58
9235;BME280;4652;42.716;23.218;2024-03-02T01:37:48;94155.41;;;7.61;76.62
9235;BME280;4652;42.716;23.218;2024-03-02T01:40:15;94160.06;;;7.64;76.40
9235;BME280;4652;42.716;23.218;2024-03-02T01:42:43;94166.56;;;7.56;76.97
9235;BME280;4652;42.716;23.218;2024-03-02T01:45:09;94156.25;;;7.46;77.37
9235;BME280;4652;42.716;23.218;2024-03-02T01:47:35;94160.13;;;7.48;77.98
9235;BME280;4652;42.716;23.218;2024-03-02T01:50:02;94164.53;;;7.53;78.19
9235;BME280;4652;42.716;23.218;2024-03-02T01:52:29;94156.81;;;7.38;77.75
9235;BME280;4652;42.716;23.218;2024-03-02T01:54:56;94156.00;;;7.53;78.21
9235;BME280;4652;42.716;23.218;2024-03-02T01:57:23;94153.13;;;7.49;78.27
9235;BME280;4652;42.716;23.218;2024-03-02T01:59:49;94156.81;;;7.43;77.65
9235;BME280;4652;42.716;23.218;2024-03-02T10:21:54;94291.88;;;9.47;73.64
9235;BME280;4652;42.716;23.218;2024-03-02T10:24:22;94281.34;;;9.33;76.24
9235;BME280;4652;42.716;23.218;2024-03-02T10:26:49;94292.50;;;9.63;75.24
9235;BME280;4652;42.716;23.218;2024-03-02T10:29:15;94281.31;;;9.86;73.42
9235;BME280;4652;42.716;23.218;2024-03-02T10:31:44;94286.09;;;9.98;72.30
9235;BME280;4652;42.716;23.218;2024-03-02T10:34:12;94285.97;;;9.89;73.58
9235;BME280;4652;42.716;23.218;2024-03-02T10:36:43;94292.84;;;9.75;75.18
9235;BME280;4652;42.716;23.218;2024-03-02T10:39:10;94293.34;;;10.01;73.83
9235;BME280;4652;42.716;23.218;2024-03-02T10:41:38;94289.38;;;10.09;74.62
9235;BME280;4652;42.716;23.218;2024-03-02T10:44:06;94284.56;;;10.40;72.57
9235;BME280;4652;42.716;23.218;2024-03-02T10:46:35;94285.78;;;10.47;72.61
9235;BME280;4652;42.716;23.218;2024-03-02T10:49:03;94281.00;;;10.36;70.82
9235;BME280;4652;42.716;23.218;2024-03-02T10:51:32;94273.84;;;10.46;71.98
9235;BME280;4652;42.716;23.218;2024-03-02T10:53:59;94272.38;;;10.40;70.87
9235;BME280;4652;42.716;23.218;2024-03-02T10:56:33;94276.72;;;10.45;69.74
9235;BME280;4652;42.716;23.218;2024-03-02T10:59:12;94271.88;;;10.38;70.25
9235;BME280;4652;42.716;23.218;2024-03-02T11:01:43;94285.56;;;10.20;71.20
9235;BME280;4652;42.716;23.218;2024-03-02T11:04:11;94280.00;;;10.08;71.94
9235;BME280;4652;42.716;23.218;2024-03-02T11:06:40;94273.53;;;9.62;74.32
9235;BME280;4652;42.716;23.218;2024-03-02T11:09:10;94270.09;;;9.43;74.54
9235;BME280;4652;42.716;23.218;2024-03-02T11:11:40;94273.81;;;9.61;76.45
9235;BME280;4652;42.716;23.218;2024-03-02T11:14:16;94267.03;;;9.11;75.28
9235;BME280;4652;42.716;23.218;2024-03-02T11:16:42;94268.44;;;9.28;74.20
9235;BME280;4652;42.716;23.218;2024-03-02T11:19:13;94271.59;;;9.49;75.24
9235;BME280;4652;42.716;23.218;2024-03-02T11:21:40;94266.34;;;9.30;75.79
9235;BME280;4652;42.716;23.218;2024-03-02T11:27:07;94271.53;;;9.30;75.41
9235;BME280;4652;42.716;23.218;2024-03-02T11:32:16;94260.56;;;9.86;75.91
9235;BME280;4652;42.716;23.218;2024-03-02T11:34:45;94261.03;;;9.88;74.91
9235;BME280;4652;42.716;23.218;2024-03-02T11:37:19;94257.75;;;9.82;75.05
9235;BME280;4652;42.716;23.218;2024-03-02T11:40:05;94255.75;;;9.98;74.59
9235;BME280;4652;42.716;23.218;2024-03-02T11:42:35;94255.06;;;9.88;72.42
9235;BME280;4652;42.716;23.218;2024-03-02T11:45:02;94269.19;;;10.00;73.36
9235;BME280;4652;42.716;23.218;2024-03-02T11:47:31;94263.38;;;9.90;71.69
9235;BME280;4652;42.716;23.218;2024-03-02T11:49:58;94261.72;;;9.99;73.65
9235;BME280;4652;42.716;23.218;2024-03-02T11:52:25;94263.25;;;10.00;72.14
9235;BME280;4652;42.716;23.218;2024-03-02T11:54:53;94266.81;;;9.61;73.42
9235;BME280;4652;42.716;23.218;2024-03-02T11:57:20;94253.72;;;9.95;72.44
9235;BME280;4652;42.716;23.218;2024-03-02T11:59:49;94259.69;;;10.15;73.34
9235;BME280;4652;42.716;23.218;2024-03-02T12:02:20;94258.34;;;9.98;71.72
9235;BME280;4652;42.716;23.218;2024-03-02T12:04:48;94261.38;;;10.05;71.71
9235;BME280;4652;42.716;23.218;2024-03-02T12:07:22;94257.34;;;10.13;72.17
9235;BME280;4652;42.716;23.218;2024-03-02T12:09:59;94252.13;;;9.27;74.69
9235;BME280;4652;42.716;23.218;2024-03-02T12:12:26;94251.56;;;9.30;73.79
9235;BME280;4652;42.716;23.218;2024-03-02T12:14:53;94256.94;;;9.63;74.35
9235;BME280;4652;42.716;23.218;2024-03-02T12:17:22;94252.28;;;9.84;72.62
9235;BME280;4652;42.716;23.218;2024-03-02T12:19:49;94259.31;;;10.02;71.51
9235;BME280;4652;42.716;23.218;2024-03-02T12:22:15;94259.09;;;9.99;71.17
9235;BME280;4652;42.716;23.218;2024-03-02T12:24:42;94256.75;;;9.78;70.70
9235;BME280;4652;42.716;23.218;2024-03-02T12:27:12;94262.47;;;9.56;73.08
9235;BME280;4652;42.716;23.218;2024-03-02T12:29:38;94256.06;;;9.73;73.42
9235;BME280;4652;42.716;23.218;2024-03-02T12:32:05;94253.13;;;9.79;72.79
9235;BME280;4652;42.716;23.218;2024-03-02T12:34:32;94251.25;;;9.85;71.81
9235;BME280;4652;42.716;23.218;2024-03-02T12:36:58;94258.63;;;9.49;72.98
9235;BME280;4652;42.716;23.218;2024-03-02T12:39:25;94253.84;;;9.61;73.74
9235;BME280;4652;42.716;23.218;2024-03-02T12:41:52;94251.25;;;9.37;75.22
9235;BME280;4652;42.716;23.218;2024-03-02T12:44:20;94251.78;;;9.34;75.40
9235;BME280;4652;42.716;23.218;2024-03-02T12:46:47;94261.00;;;9.45;74.26
9235;BME280;4652;42.716;23.218;2024-03-02T12:49:14;94261.66;;;9.32;73.49
9235;BME280;4652;42.716;23.218;2024-03-02T12:51:46;94260.03;;;9.41;75.30
9235;BME280;4652;42.716;23.218;2024-03-02T12:54:17;94259.94;;;9.22;74.79
9235;BME280;4652;42.716;23.218;2024-03-02T12:56:43;94262.44;;;9.32;74.19
9235;BME280;4652;42.716;23.218;2024-03-02T12:59:18;94258.41;;;9.45;75.22
9235;BME280;4652;42.716;23.218;2024-03-02T13:01:55;94263.19;;;9.33;74.43
9235;BME280;4652;42.716;23.218;2024-03-02T13:04:28;94263.59;;;9.45;73.27
9235;BME280;4652;42.716;23.218;2024-03-02T13:06:55;94261.44;;;9.28;75.24
9235;BME280;4652;42.716;23.218;2024-03-02T13:09:24;94263.19;;;9.33;75.43
9235;BME280;4652;42.716;23.218;2024-03-02T13:11:50;94263.94;;;9.39;75.37
9235;BME280;4652;42.716;23.218;2024-03-02T13:14:16;94260.22;;;9.21;75.56
9235;BME280;4652;42.716;23.218;2024-03-02T13:16:42;94261.69;;;9.27;76.94
9235;BME280;4652;42.716;23.218;2024-03-02T13:19:09;94262.88;;;9.40;75.89
9235;BME280;4652;42.716;23.218;2024-03-02T13:21:35;94270.66;;;9.40;76.07
9235;BME280;4652;42.716;23.218;2024-03-02T13:24:01;94264.66;;;9.44;76.70
9235;BME280;4652;42.716;23.218;2024-03-02T13:26:27;94265.59;;;9.53;74.15
9235;BME280;4652;42.716;23.218;2024-03-02T13:28:53;94279.59;;;9.52;74.97
9235;BME280;4652;42.716;23.218;2024-03-02T13:31:18;94276.03;;;9.19;77.18
9235;BME280;4652;42.716;23.218;2024-03-02T13:33:44;94272.91;;;8.93;76.66
9235;BME280;4652;42.716;23.218;2024-03-02T13:36:10;94275.81;;;8.86;78.43
9235;BME280;4652;42.716;23.218;2024-03-02T13:38:36;94273.00;;;9.12;78.25
9235;BME280;4652;42.716;23.218;2024-03-02T13:41:01;94275.94;;;9.29;77.09
9235;BME280;4652;42.716;23.218;2024-03-02T13:43:27;94275.16;;;9.29;76.04
9235;BME280;4652;42.716;23.218;2024-03-02T13:45:53;94278.97;;;9.37;75.27
9235;BME280;4652;42.716;23.218;2024-03-02T13:48:19;94284.91;;;9.42;76.27
9235;BME280;4652;42.716;23.218;2024-03-02T13:50:45;94283.53;;;9.50;75.18
9235;BME280;4652;42.716;23.218;2024-03-02T13:53:11;94286.69;;;9.47;75.35
9235;BME280;4652;42.716;23.218;2024-03-02T13:55:37;94288.44;;;9.51;75.67
9235;BME280;4652;42.716;23.218;2024-03-02T13:58:03;94289.06;;;9.67;74.65
9235;BME280;4652;42.716;23.218;2024-03-02T14:03:42;94284.47;;;9.83;73.06
9235;BME280;4652;42.716;23.218;2024-03-02T14:06:07;94289.53;;;9.93;72.29
9235;BME280;4652;42.716;23.218;2024-03-02T14:08:33;94293.97;;;9.93;72.15
9235;BME280;4652;42.716;23.218;2024-03-02T14:11:01;94294.13;;;10.01;72.87
9235;BME280;4652;42.716;23.218;2024-03-02T14:13:27;94296.38;;;10.08;72.62
9235;BME280;4652;42.716;23.218;2024-03-02T14:15:54;94292.09;;;9.98;72.28
9235;BME280;4652;42.716;23.218;2024-03-02T14:18:20;94299.81;;;10.03;73.46
9235;BME280;4652;42.716;23.218;2024-03-02T14:20:46;94286.69;;;10.14;72.28
9235;BME280;4652;42.716;23.218;2024-03-02T14:23:18;94293.66;;;10.18;70.88
9235;BME280;4652;42.716;23.218;2024-03-02T14:25:45;94299.75;;;9.85;72.40
9235;BME280;4652;42.716;23.218;2024-03-02T14:28:10;94296.47;;;9.98;73.60
9235;BME280;4652;42.716;23.218;2024-03-02T14:30:37;94293.50;;;10.10;71.13
9235;BME280;4652;42.716;23.218;2024-03-02T14:33:03;94286.47;;;10.10;70.69
9235;BME280;4652;42.716;23.218;2024-03-02T14:35:28;94284.75;;;10.24;71.25
9235;BME280;4652;42.716;23.218;2024-03-02T14:37:55;94300.13;;;10.21;71.05
9235;BME280;4652;42.716;23.218;2024-03-02T14:40:22;94298.69;;;10.34;70.50
9235;BME280;4652;42.716;23.218;2024-03-02T14:42:50;94299.31;;;10.44;70.63
9235;BME280;4652;42.716;23.218;2024-03-02T14:45:16;94306.47;;;10.52;70.56
9235;BME280;4652;42.716;23.218;2024-03-02T14:47:42;94306.72;;;10.56;70.52
9235;BME280;4652;42.716;23.218;2024-03-02T14:50:08;94308.88;;;10.49;69.84
9235;BME280;4652;42.716;23.218;2024-03-02T14:52:35;94306.41;;;10.39;69.98
9235;BME280;4652;42.716;23.218;2024-03-02T14:55:01;94312.25;;;10.31;71.14
9235;BME280;4652;42.716;23.218;2024-03-02T14:57:28;94317.69;;;10.29;71.44
9235;BME280;4652;42.716;23.218;2024-03-02T14:59:53;94320.28;;;10.29;70.86
9235;BME280;4652;42.716;23.218;2024-03-02T15:02:21;94320.59;;;10.27;71.79
9235;BME280;4652;42.716;23.218;2024-03-02T15:04:48;94317.34;;;10.36;72.78
9235;BME280;4652;42.716;23.218;2024-03-02T15:07:14;94314.16;;;10.44;70.05
9235;BME280;4652;42.716;23.218;2024-03-02T15:09:42;94313.38;;;10.43;70.87
9235;BME280;4652;42.716;23.218;2024-03-02T15:12:08;94316.78;;;10.39;71.58
9235;BME280;4652;42.716;23.218;2024-03-02T15:14:39;94317.69;;;10.29;71.49
9235;BME280;4652;42.716;23.218;2024-03-02T15:17:13;94324.47;;;10.25;70.02
9235;BME280;4652;42.716;23.218;2024-03-02T15:19:45;94321.78;;;10.11;71.25
9235;BME280;4652;42.716;23.218;2024-03-02T15:22:12;94323.88;;;10.09;71.52
9235;BME280;4652;42.716;23.218;2024-03-02T15:24:38;94323.72;;;10.00;72.65
9235;BME280;4652;42.716;23.218;2024-03-02T15:27:05;94327.88;;;10.01;72.48
9235;BME280;4652;42.716;23.218;2024-03-02T15:29:33;94326.81;;;10.02;72.47
9235;BME280;4652;42.716;23.218;2024-03-02T15:31:59;94322.28;;;10.13;72.15
9235;BME280;4652;42.716;23.218;2024-03-02T15:34:25;94327.03;;;10.06;72.40
9235;BME280;4652;42.716;23.218;2024-03-02T15:36:52;94323.34;;;10.12;70.91
9235;BME280;4652;42.716;23.218;2024-03-02T15:39:18;94324.66;;;10.10;70.86
9235;BME280;4652;42.716;23.218;2024-03-02T15:41:44;94320.44;;;10.14;69.81
9235;BME280;4652;42.716;23.218;2024-03-02T15:44:11;94326.59;;;9.99;71.14
9235;BME280;4652;42.716;23.218;2024-03-02T15:46:37;94326.94;;;9.92;70.60
9235;BME280;4652;42.716;23.218;2024-03-02T15:49:03;94334.66;;;9.97;70.87
9235;BME280;4652;42.716;23.218;2024-03-02T15:51:32;94325.63;;;9.95;70.31
9235;BME280;4652;42.716;23.218;2024-03-02T15:54:10;94324.47;;;9.82;71.75
9235;BME280;4652;42.716;23.218;2024-03-02T15:56:37;94322.72;;;9.96;70.49
9235;BME280;4652;42.716;23.218;2024-03-02T15:59:03;94325.34;;;9.96;70.06
9235;BME280;4652;42.716;23.218;2024-03-02T16:01:34;94324.47;;;9.82;71.24
9235;BME280;4652;42.716;23.218;2024-03-02T16:04:00;94331.41;;;9.87;70.13
9235;BME280;4652;42.716;23.218;2024-03-02T16:06:26;94330.56;;;9.91;69.99
9235;BME280;4652;42.716;23.218;2024-03-02T16:08:53;94331.97;;;9.84;71.14
9235;BME280;4652;42.716;23.218;2024-03-02T16:11:21;94332.28;;;9.77;71.25
9235;BME280;4652;42.716;23.218;2024-03-02T16:13:47;94325.56;;;9.76;70.83
9235;BME280;4652;42.716;23.218;2024-03-02T16:16:13;94328.97;;;9.71;70.47
9235;BME280;4652;42.716;23.218;2024-03-02T16:18:39;94332.72;;;9.60;71.10
9235;BME280;4652;42.716;23.218;2024-03-02T16:21:08;94329.84;;;9.62;70.90
9235;BME280;4652;42.716;23.218;2024-03-02T16:23:34;94330.94;;;9.55;72.57
9235;BME280;4652;42.716;23.218;2024-03-02T16:26:01;94330.81;;;9.42;73.07
9235;BME280;4652;42.716;23.218;2024-03-02T16:28:27;94344.09;;;9.35;71.71
9235;BME280;4652;42.716;23.218;2024-03-02T16:30:54;94329.59;;;9.34;73.58
9235;BME280;4652;42.716;23.218;2024-03-02T16:33:20;94344.97;;;9.25;73.92
9235;BME280;4652;42.716;23.218;2024-03-02T16:35:46;94339.97;;;9.00;76.00
9235;BME280;4652;42.716;23.218;2024-03-02T16:38:14;94349.59;;;8.94;76.08
9235;BME280;4652;42.716;23.218;2024-03-02T16:40:40;94350.09;;;8.96;76.79
9235;BME280;4652;42.716;23.218;2024-03-02T16:43:06;94348.50;;;9.00;75.30
9235;BME280;4652;42.716;23.218;2024-03-02T16:45:32;94356.94;;;8.82;76.78
9235;BME280;4652;42.716;23.218;2024-03-02T16:47:58;94361.25;;;8.52;77.14
9235;BME280;4652;42.716;23.218;2024-03-02T16:50:24;94361.78;;;8.49;77.79
9235;BME280;4652;42.716;23.218;2024-03-02T16:52:51;94359.16;;;8.54;77.09
9235;BME280;4652;42.716;23.218;2024-03-02T16:55:17;94363.81;;;8.57;77.70
9235;BME280;4652;42.716;23.218;2024-03-02T16:57:44;94364.66;;;8.43;78.79
9235;BME280;4652;42.716;23.218;2024-03-02T17:00:11;94365.69;;;8.36;78.49
9235;BME280;4652;42.716;23.218;2024-03-02T17:02:37;94363.13;;;8.31;78.44
9235;BME280;4652;42.716;23.218;2024-03-02T17:05:04;94367.50;;;8.36;77.96
9235;BME280;4652;42.716;23.218;2024-03-02T17:07:29;94369.31;;;8.35;78.32
9235;BME280;4652;42.716;23.218;2024-03-02T17:09:57;94369.38;;;8.30;78.21
9235;BME280;4652;42.716;23.218;2024-03-02T17:12:24;94368.59;;;8.25;77.91
9235;BME280;4652;42.716;23.218;2024-03-02T17:14:50;94370.19;;;8.21;79.01
9235;BME280;4652;42.716;23.218;2024-03-02T17:17:16;94369.13;;;8.22;78.55
9235;BME280;4652;42.716;23.218;2024-03-02T17:19:44;94374.81;;;8.24;77.17
9235;BME280;4652;42.716;23.218;2024-03-02T17:22:10;94378.97;;;8.25;78.50
9235;BME280;4652;42.716;23.218;2024-03-02T17:24:37;94382.59;;;8.24;77.54
9235;BME280;4652;42.716;23.218;2024-03-02T17:27:03;94381.31;;;8.21;77.74
9235;BME280;4652;42.716;23.218;2024-03-02T17:29:29;94383.97;;;7.95;79.10
9235;BME280;4652;42.716;23.218;2024-03-02T17:31:57;94385.25;;;7.98;78.37
9235;BME280;4652;42.716;23.218;2024-03-02T17:34:24;94386.31;;;7.87;77.67
9235;BME280;4652;42.716;23.218;2024-03-02T17:36:50;94385.53;;;7.86;77.63
9235;BME280;4652;42.716;23.218;2024-03-02T17:39:18;94388.41;;;7.85;76.61
9235;BME280;4652;42.716;23.218;2024-03-02T17:41:44;94387.63;;;7.79;77.34
9235;BME280;4652;42.716;23.218;2024-03-02T17:44:10;94395.69;;;7.62;77.43
9235;BME280;4652;42.716;23.218;2024-03-02T17:46:37;94399.81;;;7.38;78.02
9235;BME280;4652;42.716;23.218;2024-03-02T17:49:03;94400.84;;;7.16;78.06
9235;BME280;4652;42.716;23.218;2024-03-02T17:51:29;94405.50;;;7.04;78.14
9235;BME280;4652;42.716;23.218;2024-03-02T17:53:55;94408.28;;;6.87;77.65
9235;BME280;4652;42.716;23.218;2024-03-02T17:56:22;94407.03;;;6.95;77.20
9235;BME280;4652;42.716;23.218;2024-03-02T17:58:49;94402.38;;;6.82;77.83
9235;BME280;4652;42.716;23.218;2024-03-02T18:01:15;94401.53;;;6.71;77.98
9235;BME280;4652;42.716;23.218;2024-03-02T18:03:42;94404.59;;;6.47;79.21
9235;BME280;4652;42.716;23.218;2024-03-02T18:06:08;94408.19;;;6.41;78.30
9235;BME280;4652;42.716;23.218;2024-03-02T18:08:39;94411.03;;;6.40;78.41
9235;BME280;4652;42.716;23.218;2024-03-02T18:11:05;94405.81;;;6.35;78.59
9235;BME280;4652;42.716;23.218;2024-03-02T18:13:34;94406.31;;;6.26;78.13
9235;BME280;4652;42.716;23.218;2024-03-02T18:16:01;94415.06;;;6.20;78.98
9235;BME280;4652;42.716;23.218;2024-03-02T18:18:28;94408.91;;;5.84;80.43
9235;BME280;4652;42.716;23.218;2024-03-02T18:20:54;94421.50;;;5.75;80.59
9235;BME280;4652;42.716;23.218;2024-03-02T18:23:20;94416.06;;;5.72;79.06
9235;BME280;4652;42.716;23.218;2024-03-02T18:25:46;94415.75;;;5.68;79.78
9235;BME280;4652;42.716;23.218;2024-03-02T18:28:13;94415.22;;;5.61;79.42
9235;BME280;4652;42.716;23.218;2024-03-02T18:30:40;94424.97;;;5.54;79.31
9235;BME280;4652;42.716;23.218;2024-03-02T18:33:07;94422.34;;;5.49;79.65
9235;BME280;4652;42.716;23.218;2024-03-02T18:35:33;94422.75;;;5.35;81.42
9235;BME280;4652;42.716;23.218;2024-03-02T18:38:02;94424.84;;;5.38;80.22
9235;BME280;4652;42.716;23.218;2024-03-02T18:40:28;94417.31;;;5.32;79.78
9235;BME280;4652;42.716;23.218;2024-03-02T18:42:54;94419.03;;;5.21;79.16
9235;BME280;4652;42.716;23.218;2024-03-02T18:45:21;94425.41;;;5.13;79.14
9235;BME280;4652;42.716;23.218;2024-03-02T18:47:47;94424.81;;;5.06;79.74
9235;BME280;4652;42.716;23.218;2024-03-02T18:50:14;94425.50;;;4.97;80.05
9235;BME280;4652;42.716;23.218;2024-03-02T18:52:40;94426.19;;;4.87;80.03
9235;BME280;4652;42.716;23.218;2024-03-02T18:55:07;94422.09;;;4.64;80.38
9235;BME280;4652;42.716;23.218;2024-03-02T18:57:34;94429.03;;;4.63;80.42
9235;BME280;4652;42.716;23.218;2024-03-02T19:00:00;94428.69;;;4.55;80.80
9235;BME280;4652;42.716;23.218;2024-03-02T19:02:26;94433.66;;;4.61;81.24
9235;BME280;4652;42.716;23.218;2024-03-02T19:04:54;94433.34;;;4.36;82.79
9235;BME280;4652;42.716;23.218;2024-03-02T19:07:20;94432.38;;;4.37;82.51
9235;BME280;4652;42.716;23.218;2024-03-02T19:09:47;94433.72;;;4.44;80.67
9235;BME280;4652;42.716;23.218;2024-03-02T19:12:13;94435.88;;;4.53;82.01
9235;BME280;4652;42.716;23.218;2024-03-02T19:14:40;94438.28;;;4.59;81.61
9235;BME280;4652;42.716;23.218;2024-03-02T19:17:06;94430.94;;;4.46;83.27
9235;BME280;4652;42.716;23.218;2024-03-02T19:19:33;94434.28;;;4.47;83.43
9235;BME280;4652;42.716;23.218;2024-03-02T19:22:00;94441.06;;;4.58;82.61
9235;BME280;4652;42.716;23.218;2024-03-02T19:24:26;94437.13;;;4.72;82.44
9235;BME280;4652;42.716;23.218;2024-03-02T19:26:52;94439.22;;;4.75;81.91
9235;BME280;4652;42.716;23.218;2024-03-02T19:29:19;94446.97;;;4.80;82.22
9235;BME280;4652;42.716;23.218;2024-03-02T19:31:45;94440.03;;;4.81;82.35
9235;BME280;4652;42.716;23.218;2024-03-02T19:34:12;94446.47;;;4.78;82.98
9235;BME280;4652;42.716;23.218;2024-03-02T19:36:39;94442.09;;;4.79;81.86
9235;BME280;4652;42.716;23.218;2024-03-02T19:39:05;94440.28;;;4.79;82.50
9235;BME280;4652;42.716;23.218;2024-03-02T19:41:31;94434.59;;;4.77;83.43
9235;BME280;4652;42.716;23.218;2024-03-02T19:43:57;94440.78;;;4.76;83.49
9235;BME280;4652;42.716;23.218;2024-03-02T19:46:24;94441.06;;;4.80;82.90
9235;BME280;4652;42.716;23.218;2024-03-02T19:48:50;94439.91;;;4.93;83.33
9235;BME280;4652;42.716;23.218;2024-03-02T19:51:17;94437.38;;;4.98;81.85
9235;BME280;4652;42.716;23.218;2024-03-02T19:53:43;94442.00;;;4.96;82.52
9235;BME280;4652;42.716;23.218;2024-03-02T19:56:16;94441.50;;;4.99;82.86
9235;BME280;4652;42.716;23.218;2024-03-02T19:58:42;94448.47;;;4.98;83.44
9235;BME280;4652;42.716;23.218;2024-03-02T20:52:59;94443.47;;;5.83;81.11
9235;BME280;4652;42.716;23.218;2024-03-02T20:55:32;94441.53;;;5.68;81.71
9235;BME280;4652;42.716;23.218;2024-03-02T20:57:58;94453.44;;;5.69;81.19
9235;BME280;4652;42.716;23.218;2024-03-02T21:00:24;94458.88;;;5.73;81.83
9235;BME280;4652;42.716;23.218;2024-03-02T21:02:51;94452.06;;;5.61;82.53
9235;BME280;4652;42.716;23.218;2024-03-02T21:05:18;94457.16;;;5.51;82.01
9235;BME280;4652;42.716;23.218;2024-03-02T21:07:46;94451.00;;;5.57;82.54
9235;BME280;4652;42.716;23.218;2024-03-02T21:10:12;94448.97;;;5.59;82.71
9235;BME280;4652;42.716;23.218;2024-03-02T21:12:39;94450.78;;;5.59;81.70
9235;BME280;4652;42.716;23.218;2024-03-02T21:15:06;94449.19;;;5.53;82.58
9235;BME280;4652;42.716;23.218;2024-03-02T21:17:33;94442.25;;;5.58;83.15
9235;BME280;4652;42.716;23.218;2024-03-02T21:19:59;94438.47;;;5.66;82.50
9235;BME280;4652;42.716;23.218;2024-03-02T21:22:25;94441.03;;;5.66;82.63
9235;BME280;4652;42.716;23.218;2024-03-02T21:24:51;94434.56;;;5.64;82.80
9235;BME280;4652;42.716;23.218;2024-03-02T21:27:18;94432.06;;;5.74;83.05
9235;BME280;4652;42.716;23.218;2024-03-02T21:29:44;94435.38;;;5.69;83.55
9235;BME280;4652;42.716;23.218;2024-03-02T21:32:10;94443.41;;;5.73;82.82
9235;BME280;4652;42.716;23.218;2024-03-02T21:34:37;94437.91;;;5.64;83.63
9235;BME280;4652;42.716;23.218;2024-03-02T21:37:03;94435.94;;;5.76;83.48
9235;BME280;4652;42.716;23.218;2024-03-02T21:39:31;94438.03;;;5.79;82.13
9235;BME280;4652;42.716;23.218;2024-03-02T21:41:56;94434.69;;;5.79;82.34
9235;BME280;4652;42.716;23.218;2024-03-02T21:44:22;94439.28;;;5.77;82.93
9235;BME280;4652;42.716;23.218;2024-03-02T21:46:48;94442.91;;;5.76;82.28
9235;BME280;4652;42.716;23.218;2024-03-02T21:49:15;94442.63;;;5.72;83.17
9235;BME280;4652;42.716;23.218;2024-03-02T21:51:41;94445.72;;;5.74;83.71
9235;BME280;4652;42.716;23.218;2024-03-02T21:54:08;94446.59;;;5.90;81.68
9235;BME280;4652;42.716;23.218;2024-03-02T21:56:34;94445.34;;;5.93;81.00
9235;BME280;4652;42.716;23.218;2024-03-02T21:59:00;94445.91;;;5.95;81.49
9235;BME280;4652;42.716;23.218;2024-03-02T22:01:26;94449.19;;;5.90;81.34
9235;BME280;4652;42.716;23.218;2024-03-02T22:03:53;94444.78;;;5.91;80.92
9235;BME280;4652;42.716;23.218;2024-03-02T22:06:19;94440.66;;;5.90;81.52
9235;BME280;4652;42.716;23.218;2024-03-02T22:08:45;94442.69;;;5.82;81.49
9235;BME280;4652;42.716;23.218;2024-03-02T22:11:11;94449.66;;;5.87;82.26
9235;BME280;4652;42.716;23.218;2024-03-02T22:13:38;94453.72;;;5.78;82.37
9235;BME280;4652;42.716;23.218;2024-03-02T22:16:05;94455.47;;;5.67;82.48
9235;BME280;4652;42.716;23.218;2024-03-02T22:18:31;94457.81;;;5.69;82.63
9235;BME280;4652;42.716;23.218;2024-03-02T22:20:57;94454.75;;;5.77;81.63
9235;BME280;4652;42.716;23.218;2024-03-02T22:23:23;94448.63;;;5.83;81.15
9235;BME280;4652;42.716;23.218;2024-03-02T22:25:50;94460.19;;;5.80;81.31
9235;BME280;4652;42.716;23.218;2024-03-02T22:28:16;94451.94;;;5.78;80.73
9235;BME280;4652;42.716;23.218;2024-03-02T22:30:42;94464.25;;;5.71;81.50
9235;BME280;4652;42.716;23.218;2024-03-02T22:33:08;94470.72;;;5.36;82.82
9235;BME280;4652;42.716;23.218;2024-03-02T22:35:34;94457.94;;;5.52;82.61
9235;BME280;4652;42.716;23.218;2024-03-02T22:38:00;94463.53;;;5.44;81.70
9235;BME280;4652;42.716;23.218;2024-03-02T22:40:27;94462.59;;;5.55;82.15
9235;BME280;4652;42.716;23.218;2024-03-02T22:42:53;94469.31;;;5.56;82.24
9235;BME280;4652;42.716;23.218;2024-03-02T22:45:19;94466.75;;;5.56;82.54
9235;BME280;4652;42.716;23.218;2024-03-02T22:47:45;94464.06;;;5.46;82.96